KPHN/PHN METAR and TAF weather

Enter ICAO airport designator
Station Type Date Time Source
KPHN METAR 2019/02/20 07:15 UTC NOAA

KPHN 200715Z AUTO 00000KT 10SM CLR M11/M12 A3045 RMK AO2


Station Type Date Time Source
KPHN Decoded METAR 2019/02/20 07:15 UTC NOAA

St. Clair County International, MI, United States (KPHN) 42-55N 082-32W
Feb 20, 2019 - 02:15 AM EST / 2019.02.20 0715 UTC
Wind: Calm:0
Visibility: 10 mile(s):0
Sky conditions: clear
Temperature: 12 F (-11 C)
Dew Point: 10 F (-12 C)
Relative Humidity: 92%
Pressure (altimeter): 30.45 in. Hg (1031 hPa)
ob: KPHN 200715Z AUTO 00000KT 10SM CLR M11/M12 A3045 RMK AO2
cycle: 7

Station Type Date Time Source
KPHN TAF UTC NOAA

Error!


Example: see airport list